Time;durP1;ratioP1;P1;durP2;ratioP2;P2;SDS_P1;SDS_P2;PMS_P1;PMS_P2;Temp;Humidity;BMP_temperature;BMP_pressure;BME280_temperature;BME280_humidity;BME280_pressure;Samples;Min_cycle;Max_cycle;Signal;HPM_P1;HPM_P2
2023/07/22 00:00:49;;;;;;;6.60;2.95;;;11.60;92.70;;;;;;5132128;28;20016;-84
2023/07/22 00:03:15;;;;;;;5.45;2.92;;;11.90;93.60;;;;;;5125672;27;20020;-85
2023/07/22 00:05:41;;;;;;;5.68;3.05;;;12.00;94.70;;;;;;5133959;27;20335;-85
2023/07/22 00:08:07;;;;;;;6.10;3.08;;;12.10;95.30;;;;;;5134630;27;20027;-85
2023/07/22 00:10:32;;;;;;;5.30;2.92;;;12.00;95.10;;;;;;5138992;27;20806;-85
2023/07/22 00:12:58;;;;;;;5.70;2.78;;;12.10;94.90;;;;;;5126732;27;20024;-85
2023/07/22 00:15:25;;;;;;;6.32;3.20;;;12.40;96.10;;;;;;5136513;27;20027;-85
2023/07/22 00:17:51;;;;;;;5.25;2.83;;;12.40;96.20;;;;;;5117598;27;20019;-85
2023/07/22 00:20:17;;;;;;;5.63;2.70;;;12.30;95.80;;;;;;5107719;27;20020;-85
2023/07/22 00:22:42;;;;;;;5.68;3.00;;;12.30;95.70;;;;;;5117166;27;20030;-85
2023/07/22 00:25:10;;;;;;;7.22;3.15;;;12.30;95.80;;;;;;5131838;27;20037;-85
2023/07/22 00:27:41;;;;;;;8.80;3.05;;;12.30;96.00;;;;;;5130806;27;20103;-84
2023/07/22 00:30:08;;;;;;;5.72;3.47;;;12.60;97.40;;;;;;5135581;27;20465;-84
2023/07/22 00:32:34;;;;;;;6.00;2.65;;;12.60;96.90;;;;;;5118247;27;20492;-84
2023/07/22 00:34:59;;;;;;;4.53;2.55;;;13.00;98.00;;;;;;5111427;28;20027;-85
2023/07/22 00:37:25;;;;;;;5.55;2.70;;;13.00;98.00;;;;;;5133642;27;20106;-85
2023/07/22 00:39:51;;;;;;;7.22;3.20;;;12.80;97.80;;;;;;5139740;27;20170;-85
2023/07/22 00:42:17;;;;;;;5.28;2.80;;;12.80;97.60;;;;;;5136057;27;20285;-85
2023/07/22 00:44:42;;;;;;;6.28;2.97;;;12.80;97.40;;;;;;5134594;27;20075;-82
2023/07/22 00:47:08;;;;;;;7.90;3.25;;;12.80;98.00;;;;;;5113597;27;20415;-83
2023/07/22 00:49:35;;;;;;;6.07;2.92;;;13.00;98.00;;;;;;5120614;27;20047;-82
2023/07/22 00:52:02;;;;;;;6.25;2.80;;;13.20;98.00;;;;;;5130110;27;20369;-82
2023/07/22 00:54:29;;;;;;;4.90;2.95;;;13.20;97.90;;;;;;5124471;27;20446;-85
2023/07/22 00:56:56;;;;;;;6.05;2.50;;;13.00;98.00;;;;;;5124389;27;20027;-87
2023/07/22 00:59:21;;;;;;;7.88;2.97;;;12.70;98.00;;;;;;5121159;27;20023;-85
2023/07/22 01:01:47;;;;;;;5.10;2.90;;;12.40;96.90;;;;;;5137262;27;20034;-85
2023/07/22 01:04:16;;;;;;;8.68;2.97;;;12.30;96.60;;;;;;5138301;27;20431;-85
2023/07/22 01:06:43;;;;;;;5.15;2.58;;;12.20;96.30;;;;;;5118483;27;20016;-85
2023/07/22 01:09:09;;;;;;;6.72;3.03;;;12.20;96.30;;;;;;5127308;27;20431;-83
2023/07/22 01:11:35;;;;;;;6.30;3.05;;;12.20;96.50;;;;;;5114752;27;20039;-85
2023/07/22 01:14:01;;;;;;;4.85;2.50;;;12.30;96.40;;;;;;5129475;27;20111;-85
2023/07/22 01:16:28;;;;;;;7.30;3.13;;;12.40;96.70;;;;;;5107566;27;20415;-85
2023/07/22 01:18:54;;;;;;;7.40;2.85;;;12.30;97.00;;;;;;5131248;27;20034;-84
2023/07/22 01:21:23;;;;;;;6.65;3.05;;;12.30;96.30;;;;;;5133635;27;20411;-85
2023/07/22 01:23:49;;;;;;;7.60;3.15;;;12.20;96.60;;;;;;5108267;27;20092;-85
2023/07/22 01:26:15;;;;;;;6.13;2.90;;;12.00;96.40;;;;;;5135877;27;20031;-85
2023/07/22 01:28:40;;;;;;;6.00;3.17;;;11.70;96.10;;;;;;5136474;27;20023;-85
2023/07/22 01:31:06;;;;;;;7.45;3.53;;;11.50;94.30;;;;;;5122415;27;20193;-85
2023/07/22 01:33:32;;;;;;;6.15;3.35;;;11.40;93.30;;;;;;5119600;27;20110;-84
2023/07/22 01:36:01;;;;;;;7.70;3.53;;;11.40;93.90;;;;;;5129838;27;20027;-85
2023/07/22 01:38:27;;;;;;;6.95;3.58;;;11.40;92.10;;;;;;5136875;27;20423;-84
2023/07/22 01:40:52;;;;;;;6.38;3.50;;;11.40;93.00;;;;;;5135489;27;20023;-85
2023/07/22 01:43:18;;;;;;;5.82;3.00;;;11.40;94.00;;;;;;5117602;27;20323;-84
2023/07/22 01:45:44;;;;;;;6.72;3.28;;;11.30;92.60;;;;;;5128464;27;20031;-85
2023/07/22 01:48:09;;;;;;;7.47;3.45;;;11.30;92.80;;;;;;5136354;27;20035;-84
2023/07/22 01:50:35;;;;;;;7.05;3.80;;;11.20;92.00;;;;;;5118515;27;20059;-84
2023/07/22 01:53:00;;;;;;;5.68;3.13;;;11.20;92.60;;;;;;5117812;27;20023;-85
2023/07/22 01:55:26;;;;;;;7.07;3.00;;;11.10;92.00;;;;;;5138370;27;20327;-84
2023/07/22 01:57:51;;;;;;;6.72;3.30;;;11.10;91.90;;;;;;5108811;28;20086;-85
2023/07/22 02:00:17;;;;;;;5.38;3.17;;;11.00;91.20;;;;;;5127639;27;20035;-83
2023/07/22 02:02:43;;;;;;;5.55;3.40;;;11.00;91.10;;;;;;5130286;27;20027;-84
2023/07/22 02:05:12;;;;;;;6.60;3.33;;;10.90;91.00;;;;;;5136040;27;20403;-84
2023/07/22 02:07:38;;;;;;;6.75;3.58;;;11.00;90.10;;;;;;5135654;27;20027;-84
2023/07/22 02:10:04;;;;;;;6.22;3.10;;;11.10;90.40;;;;;;5136575;27;20306;-84
2023/07/22 02:12:29;;;;;;;6.35;3.28;;;11.10;91.00;;;;;;5117720;27;20027;-83
2023/07/22 02:14:55;;;;;;;5.57;3.20;;;11.10;90.40;;;;;;5136199;27;20460;-84
2023/07/22 02:17:21;;;;;;;5.35;3.08;;;11.10;90.90;;;;;;5136422;27;20038;-86
2023/07/22 02:19:46;;;;;;;5.55;3.20;;;11.20;90.70;;;;;;5131653;27;20371;-84
2023/07/22 02:22:12;;;;;;;6.38;3.13;;;11.30;91.50;;;;;;5133059;27;20018;-83
2023/07/22 02:24:38;;;;;;;5.75;3.35;;;11.30;91.70;;;;;;5135442;27;20029;-84
2023/07/22 02:27:04;;;;;;;6.47;2.92;;;11.30;92.00;;;;;;5151528;27;20322;-83
2023/07/22 02:29:31;;;;;;;6.30;3.30;;;11.30;92.90;;;;;;5136260;27;20465;-85
2023/07/22 02:31:57;;;;;;;7.00;3.28;;;11.30;92.30;;;;;;5133942;27;20063;-85
2023/07/22 02:34:23;;;;;;;6.32;3.25;;;11.60;92.70;;;;;;5135815;27;20019;-85
2023/07/22 02:36:48;;;;;;;8.55;3.08;;;11.70;94.30;;;;;;5131036;27;20022;-85
2023/07/22 02:39:14;;;;;;;6.57;2.85;;;11.80;95.00;;;;;;5131438;27;20071;-84
2023/07/22 02:41:40;;;;;;;6.70;2.80;;;11.80;95.60;;;;;;5135409;27;20075;-84
2023/07/22 02:44:05;;;;;;;5.68;3.20;;;11.60;95.30;;;;;;5134680;27;20022;-84
2023/07/22 02:46:31;;;;;;;4.93;2.85;;;11.50;94.10;;;;;;5136437;27;20023;-85
2023/07/22 02:48:58;;;;;;;6.93;3.17;;;11.40;93.90;;;;;;5100384;28;20078;-85
2023/07/22 02:51:24;;;;;;;6.47;3.20;;;11.20;94.10;;;;;;5092054;28;20024;-84
2023/07/22 02:53:50;;;;;;;8.13;3.45;;;11.10;92.00;;;;;;5089257;28;20314;-84
2023/07/22 02:56:15;;;;;;;8.05;3.45;;;11.10;93.10;;;;;;5094800;28;20052;-84
2023/07/22 02:58:44;;;;;;;5.82;3.10;;;10.90;91.50;;;;;;5094135;28;20024;-85
2023/07/22 03:01:10;;;;;;;5.28;2.97;;;10.90;90.90;;;;;;5095037;28;20348;-85
2023/07/22 03:03:36;;;;;;;6.95;3.60;;;10.80;91.50;;;;;;5094333;28;20035;-85
2023/07/22 03:06:03;;;;;;;7.47;3.13;;;10.80;89.90;;;;;;5094725;28;20031;-84
2023/07/22 03:08:29;;;;;;;6.18;2.85;;;10.70;90.40;;;;;;5094297;28;20070;-84
2023/07/22 03:10:54;;;;;;;6.85;3.30;;;10.70;90.10;;;;;;5084243;28;20356;-84
2023/07/22 03:13:20;;;;;;;6.35;3.15;;;10.70;88.70;;;;;;5095111;28;20056;-85
2023/07/22 03:15:45;;;;;;;7.30;3.78;;;10.70;91.10;;;;;;5095196;28;20334;-86
2023/07/22 03:18:11;;;;;;;5.38;3.15;;;10.60;90.70;;;;;;5091549;28;20373;-85
2023/07/22 03:20:38;;;;;;;6.28;2.90;;;10.50;89.90;;;;;;5093781;28;20045;-85
2023/07/22 03:23:04;;;;;;;7.22;3.17;;;10.50;87.50;;;;;;5093974;28;20549;-84
2023/07/22 03:25:30;;;;;;;5.93;3.08;;;10.50;88.10;;;;;;5092898;28;20031;-85
2023/07/22 03:27:56;;;;;;;6.57;3.30;;;10.50;88.60;;;;;;5084278;28;20028;-85
2023/07/22 03:30:23;;;;;;;6.43;3.50;;;10.50;88.50;;;;;;5094981;28;20099;-85
2023/07/22 03:32:50;;;;;;;4.70;2.75;;;10.50;89.00;;;;;;5089605;28;20020;-84
2023/07/22 03:35:16;;;;;;;6.65;3.40;;;10.40;88.70;;;;;;5090154;28;20028;-84
2023/07/22 03:37:43;;;;;;;6.18;3.10;;;10.50;87.00;;;;;;5094044;28;20024;-83
2023/07/22 03:40:22;;;;;;;7.18;3.25;;;10.50;89.90;;;;;;5094906;28;20020;-82
2023/07/22 03:42:50;;;;;;;7.53;3.78;;;10.40;89.10;;;;;;5090940;28;20024;-83
2023/07/22 03:45:17;;;;;;;7.82;3.22;;;10.70;88.90;;;;;;5094532;28;20058;-83
2023/07/22 03:47:51;;;;;;;6.45;3.20;;;10.60;90.00;;;;;;5094113;27;20080;-82
2023/07/22 03:50:17;;;;;;;7.20;3.17;;;10.60;90.30;;;;;;5118975;27;20035;-84
2023/07/22 03:52:45;;;;;;;5.88;3.10;;;10.60;90.60;;;;;;5136043;27;20031;-83
2023/07/22 03:55:11;;;;;;;5.65;3.30;;;10.60;87.90;;;;;;5139529;27;20028;-83
2023/07/22 03:57:37;;;;;;;9.52;4.20;;;10.70;90.00;;;;;;5121082;27;20019;-84
2023/07/22 04:00:04;;;;;;;7.47;3.15;;;10.60;91.00;;;;;;5140095;27;20051;-84
2023/07/22 04:02:29;;;;;;;6.28;3.30;;;10.50;89.10;;;;;;5136893;27;20415;-83
2023/07/22 04:04:57;;;;;;;7.70;3.10;;;10.50;89.40;;;;;;5137240;27;20023;-83
2023/07/22 04:07:22;;;;;;;5.63;3.13;;;10.60;88.60;;;;;;5137961;27;20303;-83
2023/07/22 04:09:51;;;;;;;10.73;3.90;;;10.70;89.40;;;;;;5135353;27;20352;-83
2023/07/22 04:12:17;;;;;;;6.70;3.40;;;10.70;90.40;;;;;;5135822;27;20207;-83
2023/07/22 04:14:42;;;;;;;7.85;3.35;;;10.70;90.70;;;;;;5137453;27;20478;-83
2023/07/22 04:17:08;;;;;;;5.90;3.20;;;10.70;90.90;;;;;;5129563;27;20034;-84
2023/07/22 04:19:34;;;;;;;8.95;3.42;;;10.70;90.70;;;;;;5131747;27;20055;-84
2023/07/22 04:22:03;;;;;;;6.32;2.97;;;10.90;90.20;;;;;;5132301;27;20293;-83
2023/07/22 04:24:32;;;;;;;8.18;3.05;;;10.90;91.00;;;;;;5134033;27;20022;-84
2023/07/22 04:26:58;;;;;;;5.00;2.60;;;11.00;90.70;;;;;;5136742;27;20463;-83
2023/07/22 04:29:23;;;;;;;5.13;2.88;;;11.10;91.50;;;;;;5133918;27;20102;-83
2023/07/22 04:31:49;;;;;;;6.93;3.03;;;11.20;92.70;;;;;;5138131;27;20296;-86
2023/07/22 04:34:14;;;;;;;6.47;2.88;;;11.20;93.50;;;;;;5135271;27;20016;-83
2023/07/22 04:36:40;;;;;;;5.43;3.00;;;11.20;93.20;;;;;;5135029;27;20050;-84
2023/07/22 04:39:07;;;;;;;5.32;2.80;;;11.20;93.30;;;;;;5137546;27;20023;-84
2023/07/22 04:41:32;;;;;;;6.90;3.20;;;11.20;92.70;;;;;;5139336;27;20736;-82
2023/07/22 04:43:58;;;;;;;6.38;2.72;;;11.20;92.60;;;;;;5137273;27;20034;-83
2023/07/22 04:46:28;;;;;;;5.22;3.00;;;11.30;92.80;;;;;;5138688;27;20027;-84
2023/07/22 04:48:56;;;;;;;4.90;2.78;;;11.40;93.10;;;;;;5138054;27;20039;-85
2023/07/22 04:51:21;;;;;;;5.95;2.88;;;11.50;92.80;;;;;;5130120;27;20019;-83
2023/07/22 04:53:47;;;;;;;4.82;2.58;;;11.60;93.60;;;;;;5137333;27;20091;-85
2023/07/22 04:56:13;;;;;;;6.22;2.80;;;11.70;94.40;;;;;;5136861;27;20427;-84
2023/07/22 04:58:38;;;;;;;5.05;2.47;;;11.80;94.80;;;;;;5137083;27;20035;-84
2023/07/22 05:01:04;;;;;;;5.10;2.70;;;11.90;95.40;;;;;;5138949;27;20318;-84
2023/07/22 05:03:30;;;;;;;5.45;2.90;;;12.00;95.70;;;;;;5117962;27;20025;-84
2023/07/22 05:05:57;;;;;;;8.65;2.70;;;12.10;96.10;;;;;;5133266;27;20114;-84
2023/07/22 05:08:23;;;;;;;6.32;2.75;;;12.10;97.00;;;;;;5133042;27;20440;-84
2023/07/22 05:10:49;;;;;;;4.90;2.40;;;12.30;97.50;;;;;;5135493;27;20110;-84
2023/07/22 05:13:14;;;;;;;6.40;2.78;;;12.50;98.00;;;;;;5135851;27;20031;-83
2023/07/22 05:15:40;;;;;;;5.15;2.58;;;12.90;98.00;;;;;;5135934;27;20026;-83
2023/07/22 05:18:05;;;;;;;5.32;2.42;;;13.10;98.00;;;;;;5135769;27;20421;-84
2023/07/22 05:20:31;;;;;;;5.63;2.22;;;13.20;98.00;;;;;;5118017;27;20031;-83
2023/07/22 05:22:57;;;;;;;6.30;2.30;;;13.30;98.00;;;;;;5134328;27;20107;-83
2023/07/22 05:25:23;;;;;;;6.95;2.55;;;13.50;98.00;;;;;;5132630;27;20027;-85
2023/07/22 05:27:49;;;;;;;4.07;2.38;;;13.60;98.00;;;;;;5135011;27;20030;-84
2023/07/22 05:30:14;;;;;;;5.30;2.47;;;13.60;98.00;;;;;;5138129;27;20376;-83
2023/07/22 05:32:40;;;;;;;4.53;2.25;;;13.60;98.00;;;;;;5136815;27;20034;-84
2023/07/22 05:35:06;;;;;;;6.70;2.72;;;13.70;98.00;;;;;;5134189;27;20042;-83
2023/07/22 05:37:32;;;;;;;5.90;2.35;;;13.70;98.00;;;;;;5129482;27;20426;-84
2023/07/22 05:39:57;;;;;;;4.80;2.33;;;13.80;98.00;;;;;;5135644;27;20034;-83
2023/07/22 05:42:23;;;;;;;4.30;2.10;;;14.00;97.20;;;;;;5117179;27;20067;-84
2023/07/22 05:44:49;;;;;;;5.65;2.38;;;14.20;96.40;;;;;;5138416;27;20320;-85
2023/07/22 05:47:14;;;;;;;4.65;2.38;;;14.40;96.60;;;;;;5135688;27;20474;-84
2023/07/22 05:49:40;;;;;;;4.68;2.17;;;14.60;96.00;;;;;;5138375;27;20100;-85
2023/07/22 05:52:06;;;;;;;4.80;2.33;;;14.80;97.30;;;;;;5135506;27;20055;-83
2023/07/22 05:54:34;;;;;;;5.22;2.10;;;14.70;97.10;;;;;;5130767;27;20038;-84
2023/07/22 05:57:00;;;;;;;6.22;2.30;;;14.80;97.50;;;;;;5138369;27;20020;-84
2023/07/22 05:59:25;;;;;;;5.65;2.38;;;14.80;98.00;;;;;;5136937;27;20103;-84
2023/07/22 06:01:51;;;;;;;4.63;2.33;;;14.90;97.30;;;;;;5137947;27;20052;-83
2023/07/22 06:04:17;;;;;;;4.10;1.98;;;15.10;96.60;;;;;;5112504;27;20042;-84
2023/07/22 06:06:42;;;;;;;5.20;2.38;;;15.30;96.90;;;;;;5115856;28;20036;-85
2023/07/22 06:09:08;;;;;;;5.15;2.60;;;15.40;93.70;;;;;;5117037;27;20292;-84
2023/07/22 06:11:33;;;;;;;4.70;2.00;;;15.70;94.00;;;;;;5136532;27;20063;-84
2023/07/22 06:13:59;;;;;;;5.80;2.20;;;15.90;95.20;;;;;;5134040;27;20042;-84
2023/07/22 06:16:24;;;;;;;5.38;2.33;;;16.00;92.30;;;;;;5132970;27;20020;-85
2023/07/22 06:18:50;;;;;;;6.18;2.13;;;16.30;91.80;;;;;;5129863;27;20435;-85
2023/07/22 06:21:15;;;;;;;7.03;1.95;;;16.50;93.90;;;;;;5135880;27;20411;-85
2023/07/22 06:23:41;;;;;;;5.80;1.83;;;16.50;89.10;;;;;;5132511;27;20028;-84
2023/07/22 06:26:07;;;;;;;4.45;2.10;;;16.70;89.00;;;;;;5135708;27;20019;-86
2023/07/22 06:28:34;;;;;;;4.10;1.80;;;16.90;88.60;;;;;;5131386;27;20041;-85
2023/07/22 06:30:59;;;;;;;5.13;1.90;;;17.10;86.90;;;;;;5126341;27;20031;-83
2023/07/22 06:33:25;;;;;;;4.55;2.00;;;17.20;87.70;;;;;;5134068;27;20027;-83
2023/07/22 06:35:50;;;;;;;4.65;1.92;;;17.30;87.40;;;;;;5134472;27;20029;-83
2023/07/22 06:38:16;;;;;;;6.03;2.20;;;17.40;86.90;;;;;;5130933;27;20106;-83
2023/07/22 06:40:41;;;;;;;4.47;1.80;;;17.40;86.30;;;;;;5133105;27;20030;-83
2023/07/22 06:43:07;;;;;;;4.70;2.05;;;17.50;84.40;;;;;;5134321;27;20423;-84
2023/07/22 06:45:33;;;;;;;5.63;2.13;;;17.50;84.90;;;;;;5136278;27;20030;-84
2023/07/22 06:48:01;;;;;;;5.05;2.17;;;17.60;84.50;;;;;;5106350;27;20039;-84
2023/07/22 06:50:27;;;;;;;4.80;2.00;;;17.60;84.40;;;;;;5127021;27;20102;-84
2023/07/22 06:52:52;;;;;;;6.82;2.72;;;17.70;82.80;;;;;;5131307;27;20110;-84
2023/07/22 06:55:18;;;;;;;4.22;2.00;;;17.90;83.50;;;;;;5136510;27;20039;-84
2023/07/22 06:57:43;;;;;;;5.00;2.45;;;18.00;83.70;;;;;;5136739;27;20080;-85
2023/07/22 07:00:12;;;;;;;4.35;2.25;;;18.10;83.10;;;;;;5136961;27;20030;-84
2023/07/22 07:02:38;;;;;;;5.72;1.98;;;18.10;83.50;;;;;;5134555;27;20023;-85
2023/07/22 07:05:04;;;;;;;4.47;2.00;;;18.20;82.90;;;;;;5134970;27;20448;-84
2023/07/22 07:07:29;;;;;;;4.75;2.00;;;18.40;82.60;;;;;;5119314;27;20539;-84
2023/07/22 07:09:55;;;;;;;4.18;2.00;;;18.60;83.00;;;;;;5133307;27;20039;-85
2023/07/22 07:12:22;;;;;;;3.42;1.67;;;18.60;80.50;;;;;;5134943;27;20296;-84
2023/07/22 07:14:50;;;;;;;3.70;1.65;;;18.60;80.00;;;;;;5136664;27;20031;-85
2023/07/22 07:17:16;;;;;;;3.33;1.73;;;18.70;81.10;;;;;;5116266;27;20020;-84
2023/07/22 07:19:41;;;;;;;5.20;2.03;;;18.80;79.70;;;;;;5114663;27;20030;-84
2023/07/22 07:22:07;;;;;;;3.92;2.10;;;18.90;80.40;;;;;;5122980;27;20095;-84
2023/07/22 07:24:32;;;;;;;5.50;2.10;;;18.90;79.90;;;;;;5125197;27;20026;-84
2023/07/22 07:26:58;;;;;;;4.38;1.90;;;19.00;78.90;;;;;;5118808;28;20047;-83
2023/07/22 07:29:24;;;;;;;4.05;1.80;;;18.90;77.90;;;;;;5126657;27;20032;-84
2023/07/22 07:31:49;;;;;;;4.13;1.67;;;18.80;78.10;;;;;;5134285;27;20027;-85
2023/07/22 07:34:15;;;;;;;50.42;6.90;;;18.90;78.50;;;;;;5117582;28;20019;-83
2023/07/22 07:36:40;;;;;;;69.38;9.48;;;18.90;77.60;;;;;;5134665;27;20042;-83
2023/07/22 07:39:06;;;;;;;118.32;15.77;;;19.40;77.20;;;;;;5133990;27;20026;-83
2023/07/22 07:41:31;;;;;;;16.58;2.78;;;20.20;74.30;;;;;;5120723;28;20023;-82
2023/07/22 07:43:57;;;;;;;17.15;2.92;;;20.90;73.20;;;;;;5116321;28;20077;-83
2023/07/22 07:46:27;;;;;;;313.42;29.15;;;21.60;71.40;;;;;;5116019;28;20028;-83
2023/07/22 07:49:01;;;;;;;5.10;2.00;;;22.00;70.40;;;;;;5127046;28;20043;-82
2023/07/22 07:51:29;;;;;;;5.07;1.92;;;22.30;68.80;;;;;;5124060;28;20027;-83
2023/07/22 07:53:55;;;;;;;5.70;1.90;;;22.20;69.20;;;;;;5115983;27;20058;-82
2023/07/22 07:56:22;;;;;;;5.50;1.67;;;22.30;69.00;;;;;;5122495;28;20427;-84
2023/07/22 07:58:49;;;;;;;3.53;1.60;;;22.10;70.00;;;;;;5117108;27;20067;-83
2023/07/22 08:01:15;;;;;;;4.28;1.67;;;22.10;69.60;;;;;;5107185;28;20027;-83
2023/07/22 08:03:41;;;;;;;3.40;1.40;;;22.50;70.00;;;;;;5114150;28;20031;-83
2023/07/22 08:06:08;;;;;;;5.20;1.92;;;22.80;69.20;;;;;;5130590;27;20431;-83
2023/07/22 08:08:34;;;;;;;4.57;1.70;;;23.20;67.00;;;;;;5143852;27;20031;-82
2023/07/22 08:11:04;;;;;;;3.92;1.80;;;22.90;67.90;;;;;;5116118;28;20308;-82
2023/07/22 08:13:31;;;;;;;4.20;1.70;;;22.70;67.40;;;;;;5118851;28;20033;-83
2023/07/22 08:15:58;;;;;;;3.30;1.60;;;22.60;68.30;;;;;;5108197;28;20042;-82
2023/07/22 08:18:23;;;;;;;3.80;1.60;;;22.90;67.20;;;;;;5130335;27;20103;-83
2023/07/22 08:20:51;;;;;;;5.30;1.70;;;23.30;66.80;;;;;;5134286;28;20380;-84
2023/07/22 08:23:16;;;;;;;3.67;1.88;;;23.80;66.00;;;;;;5130880;27;20019;-82
2023/07/22 08:25:42;;;;;;;4.88;1.88;;;23.70;65.00;;;;;;5124282;28;20454;-84
2023/07/22 08:28:07;;;;;;;4.70;1.75;;;23.40;65.50;;;;;;5133800;27;20055;-83
2023/07/22 08:30:33;;;;;;;5.85;1.42;;;23.60;64.60;;;;;;5135643;27;20091;-82
2023/07/22 08:32:58;;;;;;;4.60;1.70;;;23.90;65.20;;;;;;5131767;27;20074;-82
2023/07/22 08:35:26;;;;;;;3.63;1.60;;;24.10;63.90;;;;;;5117402;27;20046;-81
2023/07/22 08:37:52;;;;;;;3.45;1.50;;;24.20;61.70;;;;;;5118686;27;20053;-83
2023/07/22 08:40:18;;;;;;;3.30;1.40;;;24.10;61.10;;;;;;5121388;27;20317;-82
2023/07/22 08:42:46;;;;;;;3.83;1.63;;;24.00;62.30;;;;;;5118893;27;20019;-82
2023/07/22 08:45:13;;;;;;;5.28;1.80;;;24.40;61.40;;;;;;5130987;27;20058;-82
2023/07/22 08:47:45;;;;;;;4.53;1.85;;;24.50;60.20;;;;;;5123904;27;20066;-82
2023/07/22 08:50:19;;;;;;;5.88;1.90;;;24.60;61.10;;;;;;5117629;27;20049;-83
2023/07/22 08:52:49;;;;;;;4.18;1.67;;;24.80;61.50;;;;;;5127387;27;20035;-82
2023/07/22 08:55:15;;;;;;;4.68;1.35;;;26.00;60.00;;;;;;5137305;27;20032;-84
2023/07/22 08:57:42;;;;;;;3.63;1.65;;;26.50;58.80;;;;;;5137739;27;20025;-83
2023/07/22 09:00:09;;;;;;;8.02;2.03;;;25.20;59.70;;;;;;5135065;27;20091;-82
2023/07/22 09:02:35;;;;;;;4.07;1.85;;;24.70;61.20;;;;;;5134639;27;20034;-83
2023/07/22 09:05:02;;;;;;;3.67;1.73;;;24.90;60.50;;;;;;5136778;27;20019;-83
2023/07/22 09:07:29;;;;;;;3.22;1.58;;;24.00;61.40;;;;;;5132527;27;20019;-84
2023/07/22 09:09:57;;;;;;;3.45;1.60;;;23.60;63.60;;;;;;5131117;27;20026;-84
2023/07/22 09:12:23;;;;;;;3.03;1.60;;;23.70;63.80;;;;;;5111512;27;20172;-84
2023/07/22 09:14:50;;;;;;;3.78;1.35;;;23.20;63.60;;;;;;5122770;27;20042;-84
2023/07/22 09:17:16;;;;;;;4.43;1.50;;;22.80;64.20;;;;;;5121510;27;20153;-83
2023/07/22 09:19:41;;;;;;;3.80;1.67;;;23.00;65.00;;;;;;5136739;27;20431;-84
2023/07/22 09:22:10;;;;;;;5.30;1.60;;;23.00;65.30;;;;;;5127333;27;20416;-83
2023/07/22 09:24:35;;;;;;;4.93;1.55;;;22.40;65.00;;;;;;5132913;27;20462;-84
2023/07/22 09:27:01;;;;;;;4.75;1.90;;;22.10;66.50;;;;;;5136678;27;20095;-84
2023/07/22 09:29:38;;;;;;;4.32;1.73;;;22.10;66.70;;;;;;5119854;27;20047;-82
2023/07/22 09:32:04;;;;;;;5.35;2.00;;;21.90;66.90;;;;;;5131744;27;20019;-82
2023/07/22 09:34:30;;;;;;;3.60;1.67;;;22.40;68.20;;;;;;5137826;27;20024;-82
2023/07/22 09:36:57;;;;;;;4.25;1.58;;;23.50;65.10;;;;;;5116963;27;20075;-83
2023/07/22 09:39:24;;;;;;;4.45;1.75;;;23.70;64.40;;;;;;5130425;27;20011;-84
2023/07/22 09:41:50;;;;;;;4.70;1.60;;;24.10;63.60;;;;;;5133785;27;20437;-84
2023/07/22 09:44:16;;;;;;;4.05;1.77;;;24.90;62.60;;;;;;5133784;27;20027;-84
2023/07/22 09:46:46;;;;;;;2.95;1.58;;;25.70;60.50;;;;;;5137661;27;20027;-84
2023/07/22 09:49:12;;;;;;;4.78;1.95;;;26.40;59.90;;;;;;5131525;27;20041;-84
2023/07/22 09:51:39;;;;;;;4.00;1.90;;;25.40;60.60;;;;;;5129533;27;20035;-82
2023/07/22 09:54:06;;;;;;;5.93;1.83;;;24.10;62.00;;;;;;5119373;27;20031;-83
2023/07/22 09:56:42;;;;;;;4.10;1.60;;;23.40;63.00;;;;;;5130980;27;20034;-84
2023/07/22 09:59:10;;;;;;;4.95;2.30;;;23.00;64.00;;;;;;5130212;27;20464;-84
2023/07/22 10:01:45;;;;;;;6.50;2.15;;;22.50;65.10;;;;;;5112809;27;20357;-83
2023/07/22 10:04:16;;;;;;;5.70;1.67;;;22.10;66.90;;;;;;5105179;27;20358;-84
2023/07/22 10:06:43;;;;;;;5.05;2.20;;;21.80;67.40;;;;;;5127792;27;20350;-84
2023/07/22 10:09:11;;;;;;;5.75;1.80;;;21.70;67.70;;;;;;5131687;27;20098;-84
2023/07/22 10:11:38;;;;;;;3.97;1.73;;;21.80;68.90;;;;;;5127424;27;20357;-83
2023/07/22 10:14:05;;;;;;;4.60;1.90;;;21.70;69.00;;;;;;5113648;27;20023;-85
2023/07/22 10:16:31;;;;;;;4.93;1.80;;;22.80;68.10;;;;;;5134126;27;20090;-83
2023/07/22 10:18:57;;;;;;;4.47;1.88;;;24.20;64.30;;;;;;5123982;27;20031;-84
2023/07/22 10:21:25;;;;;;;4.72;1.60;;;24.80;63.90;;;;;;5132207;27;20439;-84
2023/07/22 10:23:51;;;;;;;4.07;1.73;;;25.40;62.50;;;;;;5132255;27;20072;-84
2023/07/22 10:26:18;;;;;;;4.20;1.80;;;25.70;61.70;;;;;;5111273;27;20028;-85
2023/07/22 10:28:45;;;;;;;4.80;1.77;;;26.10;59.80;;;;;;5117593;27;20316;-83
2023/07/22 10:31:12;;;;;;;3.80;1.70;;;26.90;58.80;;;;;;5136225;27;20027;-84
2023/07/22 10:33:38;;;;;;;5.57;1.70;;;26.80;57.80;;;;;;5135629;27;20281;-86
2023/07/22 10:36:09;;;;;;;5.03;2.20;;;26.70;59.10;;;;;;5135841;27;20027;-86
2023/07/22 10:38:35;;;;;;;4.57;1.63;;;26.10;59.80;;;;;;5128678;27;20423;-88
2023/07/22 10:41:11;;;;;;;3.83;1.85;;;25.60;61.10;;;;;;5124881;27;20023;-85
2023/07/22 10:43:37;;;;;;;4.38;1.73;;;25.40;60.50;;;;;;5127365;27;20022;-84
2023/07/22 10:46:09;;;;;;;4.57;1.80;;;25.60;61.10;;;;;;5119032;27;20023;-84
2023/07/22 10:48:37;;;;;;;4.07;1.73;;;25.90;59.70;;;;;;5111709;27;20067;-85
2023/07/22 10:51:12;;;;;;;3.75;1.80;;;25.90;59.80;;;;;;5130569;27;20096;-85
2023/07/22 10:53:43;;;;;;;4.15;1.75;;;25.90;60.00;;;;;;5133784;27;20027;-84
2023/07/22 10:56:20;;;;;;;3.25;1.65;;;26.70;58.60;;;;;;5118673;27;20497;-84
2023/07/22 10:58:48;;;;;;;5.85;1.92;;;27.20;58.20;;;;;;5128072;27;20341;-85
2023/07/22 11:01:35;;;;;;;4.05;1.67;;;27.60;57.20;;;;;;5134686;27;20015;-83
2023/07/22 11:04:15;;;;;;;3.88;1.88;;;27.80;55.60;;;;;;5112006;27;20095;-83
2023/07/22 11:06:44;;;;;;;4.82;2.15;;;27.20;57.40;;;;;;5135255;27;20059;-84
2023/07/22 11:09:33;;;;;;;4.40;2.08;;;26.70;57.80;;;;;;5137307;27;20035;-84
2023/07/22 11:11:59;;;;;;;4.53;2.10;;;27.00;57.50;;;;;;5124881;27;20110;-84
2023/07/22 11:14:27;;;;;;;4.40;1.90;;;27.20;56.60;;;;;;5120953;27;20034;-83
2023/07/22 11:16:56;;;;;;;3.92;2.00;;;26.90;57.80;;;;;;5135554;27;20055;-83
2023/07/22 11:19:26;;;;;;;4.22;2.03;;;26.50;58.10;;;;;;5134104;27;20105;-84
2023/07/22 11:21:53;;;;;;;6.07;2.15;;;26.40;57.60;;;;;;5116589;28;20019;-84
2023/07/22 11:24:20;;;;;;;5.85;2.10;;;26.30;58.70;;;;;;5137404;27;20023;-85
2023/07/22 11:26:47;;;;;;;4.82;2.20;;;26.80;56.00;;;;;;5118365;28;20072;-83
2023/07/22 11:29:13;;;;;;;4.20;2.17;;;27.30;56.40;;;;;;5127944;27;20027;-84
2023/07/22 11:31:45;;;;;;;4.32;2.10;;;28.20;54.80;;;;;;5134567;27;20019;-85
2023/07/22 11:34:12;;;;;;;5.40;2.33;;;27.70;56.60;;;;;;5135003;27;20015;-85
2023/07/22 11:36:38;;;;;;;5.20;2.42;;;26.70;57.80;;;;;;5115037;27;20031;-85
2023/07/22 11:39:06;;;;;;;3.67;1.98;;;26.30;57.60;;;;;;5135127;27;20076;-85
2023/07/22 11:41:32;;;;;;;5.32;2.10;;;26.00;57.50;;;;;;5133375;27;20023;-85
2023/07/22 11:44:07;;;;;;;4.47;2.15;;;26.20;58.90;;;;;;5134163;27;20104;-85
2023/07/22 11:46:34;;;;;;;5.20;1.98;;;27.00;58.50;;;;;;5117501;28;20035;-86
2023/07/22 11:49:16;;;;;;;5.80;1.90;;;27.50;57.00;;;;;;5115013;28;20043;-88
2023/07/22 11:51:45;;;;;;;5.93;2.25;;;27.80;56.60;;;;;;5114979;27;20026;-86
2023/07/22 11:54:11;;;;;;;4.28;2.15;;;27.80;54.50;;;;;;5130780;28;20023;-87
2023/07/22 11:56:39;;;;;;;4.07;2.08;;;27.40;53.90;;;;;;5133526;27;20035;-86
2023/07/22 11:59:05;;;;;;;4.70;2.50;;;26.60;55.60;;;;;;5127051;27;20090;-85
2023/07/22 12:01:34;;;;;;;3.72;1.73;;;25.90;56.50;;;;;;5135034;27;20142;-87
2023/07/22 12:03:59;;;;;;;6.90;2.33;;;25.60;58.10;;;;;;5114916;27;20077;-86
2023/07/22 12:06:26;;;;;;;4.35;2.15;;;26.00;56.50;;;;;;5137300;27;20357;-85
2023/07/22 12:08:55;;;;;;;4.68;2.40;;;25.50;57.70;;;;;;5131565;27;20061;-82
2023/07/22 12:11:23;;;;;;;6.30;2.28;;;25.50;57.90;;;;;;5131420;27;20023;-86
2023/07/22 12:14:09;;;;;;;6.72;2.60;;;25.40;58.70;;;;;;5131590;27;20048;-86
2023/07/22 12:16:39;;;;;;;4.75;2.03;;;26.10;57.60;;;;;;5130156;27;20100;-85
2023/07/22 12:19:05;;;;;;;4.60;2.67;;;26.20;56.40;;;;;;5127915;27;20297;-86
2023/07/22 12:21:36;;;;;;;4.28;2.25;;;25.70;57.40;;;;;;5130718;27;20015;-85
2023/07/22 12:24:04;;;;;;;3.88;2.08;;;26.40;57.30;;;;;;5129411;27;20023;-85
2023/07/22 12:26:29;;;;;;;4.68;2.30;;;26.90;54.90;;;;;;5134828;27;20106;-86
2023/07/22 12:28:55;;;;;;;4.38;2.30;;;26.60;56.30;;;;;;5117666;27;20122;-87
2023/07/22 12:31:21;;;;;;;6.00;2.35;;;27.50;56.50;;;;;;5138178;27;20046;-83
2023/07/22 12:33:47;;;;;;;6.10;2.40;;;27.70;53.80;;;;;;5131049;27;20407;-84
2023/07/22 12:36:12;;;;;;;5.55;2.40;;;28.50;52.80;;;;;;5135566;27;20107;-87
2023/07/22 12:38:41;;;;;;;5.38;2.40;;;29.10;52.90;;;;;;5137441;27;20026;-87
2023/07/22 12:41:11;;;;;;;5.18;2.30;;;28.20;51.90;;;;;;5136700;27;20027;-86
2023/07/22 12:43:43;;;;;;;8.20;2.60;;;27.50;52.60;;;;;;5131524;27;20043;-86